sensor_id;sensor_type;location;lat;lon;timestamp;temperature;humidity
20957;DHT22;10637;47.970;7.830;2024-01-30T00:03:59;7.40;99.90
20957;DHT22;10637;47.970;7.830;2024-01-30T00:09:01;7.30;99.90
20957;DHT22;10637;47.970;7.830;2024-01-30T00:14:04;7.40;99.90
20957;DHT22;10637;47.970;7.830;2024-01-30T00:19:06;7.40;99.90
20957;DHT22;10637;47.970;7.830;2024-01-30T00:24:10;7.40;99.90
20957;DHT22;10637;47.970;7.830;2024-01-30T00:29:12;7.30;99.90
20957;DHT22;10637;47.970;7.830;2024-01-30T00:34:21;7.30;99.90
20957;DHT22;10637;47.970;7.830;2024-01-30T00:39:23;7.10;99.90
20957;DHT22;10637;47.970;7.830;2024-01-30T00:44:25;7.20;99.90
20957;DHT22;10637;47.970;7.830;2024-01-30T00:49:27;7.40;99.90
20957;DHT22;10637;47.970;7.830;2024-01-30T00:54:29;7.40;99.90
20957;DHT22;10637;47.970;7.830;2024-01-30T00:59:34;7.30;99.90
20957;DHT22;10637;47.970;7.830;2024-01-30T01:04:36;7.40;99.90
20957;DHT22;10637;47.970;7.830;2024-01-30T01:09:38;7.50;99.90
20957;DHT22;10637;47.970;7.830;2024-01-30T01:14:40;7.90;99.90
20957;DHT22;10637;47.970;7.830;2024-01-30T01:19:41;7.90;99.90
20957;DHT22;10637;47.970;7.830;2024-01-30T01:24:43;7.90;99.90
20957;DHT22;10637;47.970;7.830;2024-01-30T01:29:45;8.10;99.90
20957;DHT22;10637;47.970;7.830;2024-01-30T01:34:47;8.20;99.90
20957;DHT22;10637;47.970;7.830;2024-01-30T01:39:58;7.70;99.90
20957;DHT22;10637;47.970;7.830;2024-01-30T01:44:59;7.70;99.90
20957;DHT22;10637;47.970;7.830;2024-01-30T01:50:01;7.50;99.90
20957;DHT22;10637;47.970;7.830;2024-01-30T01:55:04;7.70;99.90
20957;DHT22;10637;47.970;7.830;2024-01-30T02:00:07;8.00;99.90
20957;DHT22;10637;47.970;7.830;2024-01-30T02:05:12;8.10;99.90
20957;DHT22;10637;47.970;7.830;2024-01-30T02:10:14;7.90;99.90
20957;DHT22;10637;47.970;7.830;2024-01-30T02:15:16;8.10;99.90
20957;DHT22;10637;47.970;7.830;2024-01-30T02:20:18;8.00;99.90
20957;DHT22;10637;47.970;7.830;2024-01-30T02:25:20;7.90;99.90
20957;DHT22;10637;47.970;7.830;2024-01-30T02:30:22;7.70;99.90
20957;DHT22;10637;47.970;7.830;2024-01-30T02:35:24;7.50;99.90
20957;DHT22;10637;47.970;7.830;2024-01-30T02:40:28;7.20;99.90
20957;DHT22;10637;47.970;7.830;2024-01-30T02:45:30;7.20;99.90
20957;DHT22;10637;47.970;7.830;2024-01-30T02:50:32;7.40;99.90
20957;DHT22;10637;47.970;7.830;2024-01-30T02:55:34;7.50;99.90
20957;DHT22;10637;47.970;7.830;2024-01-30T03:00:36;7.50;99.90
20957;DHT22;10637;47.970;7.830;2024-01-30T03:05:38;7.30;99.90
20957;DHT22;10637;47.970;7.830;2024-01-30T03:10:40;7.00;99.90
20957;DHT22;10637;47.970;7.830;2024-01-30T03:15:42;6.60;99.90
20957;DHT22;10637;47.970;7.830;2024-01-30T03:20:44;6.50;99.90
20957;DHT22;10637;47.970;7.830;2024-01-30T03:25:50;6.20;99.90
20957;DHT22;10637;47.970;7.830;2024-01-30T03:30:52;6.10;99.90
20957;DHT22;10637;47.970;7.830;2024-01-30T03:35:54;6.20;99.90
20957;DHT22;10637;47.970;7.830;2024-01-30T03:40:56;6.40;99.90
20957;DHT22;10637;47.970;7.830;2024-01-30T03:46:00;6.60;99.90
20957;DHT22;10637;47.970;7.830;2024-01-30T03:51:08;6.70;99.90
20957;DHT22;10637;47.970;7.830;2024-01-30T03:56:10;6.80;99.90
20957;DHT22;10637;47.970;7.830;2024-01-30T04:01:15;6.70;99.90
20957;DHT22;10637;47.970;7.830;2024-01-30T04:06:17;6.90;99.90
20957;DHT22;10637;47.970;7.830;2024-01-30T04:11:19;7.40;99.90
20957;DHT22;10637;47.970;7.830;2024-01-30T04:16:22;7.50;99.90
20957;DHT22;10637;47.970;7.830;2024-01-30T04:21:24;7.50;99.90
20957;DHT22;10637;47.970;7.830;2024-01-30T04:26:26;6.90;99.90
20957;DHT22;10637;47.970;7.830;2024-01-30T04:31:28;6.40;99.90
20957;DHT22;10637;47.970;7.830;2024-01-30T04:36:30;6.60;99.90
20957;DHT22;10637;47.970;7.830;2024-01-30T04:41:32;6.80;99.90
20957;DHT22;10637;47.970;7.830;2024-01-30T04:46:33;6.90;99.90
20957;DHT22;10637;47.970;7.830;2024-01-30T04:51:38;7.50;99.90
20957;DHT22;10637;47.970;7.830;2024-01-30T04:56:40;8.20;99.90
20957;DHT22;10637;47.970;7.830;2024-01-30T05:01:41;8.70;99.90
20957;DHT22;10637;47.970;7.830;2024-01-30T05:06:43;8.80;99.90
20957;DHT22;10637;47.970;7.830;2024-01-30T05:11:45;8.90;99.90
20957;DHT22;10637;47.970;7.830;2024-01-30T05:16:47;9.00;99.90
20957;DHT22;10637;47.970;7.830;2024-01-30T05:21:50;8.80;99.90
20957;DHT22;10637;47.970;7.830;2024-01-30T05:26:52;9.00;99.90
20957;DHT22;10637;47.970;7.830;2024-01-30T05:31:53;9.40;99.90
20957;DHT22;10637;47.970;7.830;2024-01-30T05:37:01;9.60;99.90
20957;DHT22;10637;47.970;7.830;2024-01-30T05:42:03;9.60;99.90
20957;DHT22;10637;47.970;7.830;2024-01-30T05:47:05;9.60;99.90
20957;DHT22;10637;47.970;7.830;2024-01-30T05:52:07;9.70;99.90
20957;DHT22;10637;47.970;7.830;2024-01-30T05:57:09;9.40;99.90
20957;DHT22;10637;47.970;7.830;2024-01-30T06:02:11;9.20;99.90
20957;DHT22;10637;47.970;7.830;2024-01-30T06:07:13;9.00;99.90
20957;DHT22;10637;47.970;7.830;2024-01-30T06:12:18;8.60;99.90
20957;DHT22;10637;47.970;7.830;2024-01-30T06:17:19;8.30;99.90
20957;DHT22;10637;47.970;7.830;2024-01-30T06:22:21;8.10;99.90
20957;DHT22;10637;47.970;7.830;2024-01-30T06:27:23;8.20;99.90
20957;DHT22;10637;47.970;7.830;2024-01-30T06:32:25;8.50;99.90
20957;DHT22;10637;47.970;7.830;2024-01-30T06:37:27;8.70;99.90
20957;DHT22;10637;47.970;7.830;2024-01-30T06:42:29;8.90;99.90
20957;DHT22;10637;47.970;7.830;2024-01-30T06:47:31;9.00;99.90
20957;DHT22;10637;47.970;7.830;2024-01-30T06:52:33;9.10;99.90
20957;DHT22;10637;47.970;7.830;2024-01-30T06:57:35;9.30;99.90
20957;DHT22;10637;47.970;7.830;2024-01-30T07:02:37;9.30;99.90
20957;DHT22;10637;47.970;7.830;2024-01-30T07:07:39;9.30;99.90
20957;DHT22;10637;47.970;7.830;2024-01-30T07:12:40;9.20;99.90
20957;DHT22;10637;47.970;7.830;2024-01-30T07:17:42;9.40;99.90
20957;DHT22;10637;47.970;7.830;2024-01-30T07:22:44;9.40;99.90
20957;DHT22;10637;47.970;7.830;2024-01-30T07:27:46;9.60;99.90
20957;DHT22;10637;47.970;7.830;2024-01-30T07:32:49;9.60;99.90
20957;DHT22;10637;47.970;7.830;2024-01-30T07:37:50;9.70;99.90
20957;DHT22;10637;47.970;7.830;2024-01-30T07:42:53;9.80;99.90
20957;DHT22;10637;47.970;7.830;2024-01-30T07:47:58;9.80;99.90
20957;DHT22;10637;47.970;7.830;2024-01-30T07:53:02;9.80;99.90
20957;DHT22;10637;47.970;7.830;2024-01-30T07:58:04;10.00;99.90
20957;DHT22;10637;47.970;7.830;2024-01-30T08:03:06;10.20;99.90
20957;DHT22;10637;47.970;7.830;2024-01-30T08:08:08;10.30;99.90
20957;DHT22;10637;47.970;7.830;2024-01-30T08:13:10;10.40;99.90
20957;DHT22;10637;47.970;7.830;2024-01-30T08:18:17;10.60;99.90
20957;DHT22;10637;47.970;7.830;2024-01-30T08:23:19;10.80;99.90
20957;DHT22;10637;47.970;7.830;2024-01-30T08:28:21;10.90;99.90
20957;DHT22;10637;47.970;7.830;2024-01-30T08:33:23;11.20;99.90
20957;DHT22;10637;47.970;7.830;2024-01-30T08:38:25;11.40;99.90
20957;DHT22;10637;47.970;7.830;2024-01-30T08:43:27;11.50;99.90
20957;DHT22;10637;47.970;7.830;2024-01-30T08:48:29;11.50;99.90
20957;DHT22;10637;47.970;7.830;2024-01-30T08:53:31;11.50;99.90
20957;DHT22;10637;47.970;7.830;2024-01-30T08:58:40;11.60;99.90
20957;DHT22;10637;47.970;7.830;2024-01-30T09:03:42;11.70;99.90
20957;DHT22;10637;47.970;7.830;2024-01-30T09:08:50;11.70;99.90
20957;DHT22;10637;47.970;7.830;2024-01-30T09:13:51;11.70;99.90
20957;DHT22;10637;47.970;7.830;2024-01-30T09:18:53;11.80;99.90
20957;DHT22;10637;47.970;7.830;2024-01-30T09:24:02;11.80;99.90
20957;DHT22;10637;47.970;7.830;2024-01-30T09:29:04;11.80;99.90
20957;DHT22;10637;47.970;7.830;2024-01-30T09:34:09;11.80;99.90
20957;DHT22;10637;47.970;7.830;2024-01-30T09:39:11;11.80;99.90
20957;DHT22;10637;47.970;7.830;2024-01-30T09:44:18;11.80;99.90
20957;DHT22;10637;47.970;7.830;2024-01-30T09:49:22;11.90;99.90
20957;DHT22;10637;47.970;7.830;2024-01-30T09:54:26;11.90;99.90
20957;DHT22;10637;47.970;7.830;2024-01-30T09:59:29;11.90;99.90
20957;DHT22;10637;47.970;7.830;2024-01-30T10:04:31;11.90;99.90
20957;DHT22;10637;47.970;7.830;2024-01-30T10:09:33;11.80;99.90
20957;DHT22;10637;47.970;7.830;2024-01-30T10:14:40;11.90;99.90
20957;DHT22;10637;47.970;7.830;2024-01-30T10:19:42;12.00;99.90
20957;DHT22;10637;47.970;7.830;2024-01-30T10:24:44;12.10;99.90
20957;DHT22;10637;47.970;7.830;2024-01-30T10:29:48;12.20;99.90
20957;DHT22;10637;47.970;7.830;2024-01-30T10:34:50;12.40;99.90
20957;DHT22;10637;47.970;7.830;2024-01-30T10:39:54;12.70;99.90
20957;DHT22;10637;47.970;7.830;2024-01-30T10:45:06;13.00;99.90
20957;DHT22;10637;47.970;7.830;2024-01-30T10:50:14;13.20;99.90
20957;DHT22;10637;47.970;7.830;2024-01-30T10:55:18;13.60;99.90
20957;DHT22;10637;47.970;7.830;2024-01-30T11:00:20;13.40;99.90
20957;DHT22;10637;47.970;7.830;2024-01-30T11:05:25;13.60;99.90
20957;DHT22;10637;47.970;7.830;2024-01-30T11:10:45;13.80;99.90
20957;DHT22;10637;47.970;7.830;2024-01-30T11:15:48;16.00;99.50
20957;DHT22;10637;47.970;7.830;2024-01-30T11:20:51;15.90;98.40
20957;DHT22;10637;47.970;7.830;2024-01-30T11:25:53;14.90;98.30
20957;DHT22;10637;47.970;7.830;2024-01-30T11:31:05;14.40;98.30
20957;DHT22;10637;47.970;7.830;2024-01-30T11:36:13;14.80;98.10
20957;DHT22;10637;47.970;7.830;2024-01-30T11:41:16;14.40;99.30
20957;DHT22;10637;47.970;7.830;2024-01-30T11:46:18;14.00;99.40
20957;DHT22;10637;47.970;7.830;2024-01-30T11:51:19;14.10;99.90
20957;DHT22;10637;47.970;7.830;2024-01-30T11:56:21;14.40;99.90
20957;DHT22;10637;47.970;7.830;2024-01-30T12:01:25;14.30;99.90
20957;DHT22;10637;47.970;7.830;2024-01-30T12:06:34;15.10;99.90
20957;DHT22;10637;47.970;7.830;2024-01-30T12:11:49;15.50;99.10
20957;DHT22;10637;47.970;7.830;2024-01-30T12:16:54;15.80;99.90
20957;DHT22;10637;47.970;7.830;2024-01-30T12:21:59;15.20;99.90
20957;DHT22;10637;47.970;7.830;2024-01-30T12:27:03;14.90;99.90
20957;DHT22;10637;47.970;7.830;2024-01-30T12:32:05;15.00;99.90
20957;DHT22;10637;47.970;7.830;2024-01-30T12:37:08;14.90;99.90
20957;DHT22;10637;47.970;7.830;2024-01-30T12:42:11;14.30;99.90
20957;DHT22;10637;47.970;7.830;2024-01-30T12:47:15;14.00;99.90
20957;DHT22;10637;47.970;7.830;2024-01-30T12:52:21;13.90;99.90
20957;DHT22;10637;47.970;7.830;2024-01-30T12:57:23;13.80;99.90
20957;DHT22;10637;47.970;7.830;2024-01-30T13:02:25;13.90;99.90
20957;DHT22;10637;47.970;7.830;2024-01-30T13:07:30;14.00;99.90
20957;DHT22;10637;47.970;7.830;2024-01-30T13:12:32;14.20;99.90
20957;DHT22;10637;47.970;7.830;2024-01-30T13:17:37;14.40;99.90
20957;DHT22;10637;47.970;7.830;2024-01-30T13:22:39;14.40;99.90
20957;DHT22;10637;47.970;7.830;2024-01-30T13:27:42;14.70;99.90
20957;DHT22;10637;47.970;7.830;2024-01-30T13:32:44;14.90;99.90
20957;DHT22;10637;47.970;7.830;2024-01-30T13:37:48;14.60;99.90
20957;DHT22;10637;47.970;7.830;2024-01-30T13:42:50;14.60;99.90
20957;DHT22;10637;47.970;7.830;2024-01-30T13:47:52;14.70;99.90
20957;DHT22;10637;47.970;7.830;2024-01-30T13:52:55;15.00;99.90
20957;DHT22;10637;47.970;7.830;2024-01-30T13:57:59;15.20;99.90
20957;DHT22;10637;47.970;7.830;2024-01-30T14:03:01;15.50;99.90
20957;DHT22;10637;47.970;7.830;2024-01-30T14:08:03;15.60;99.90
20957;DHT22;10637;47.970;7.830;2024-01-30T14:13:05;15.50;99.90
20957;DHT22;10637;47.970;7.830;2024-01-30T14:18:09;15.30;99.90
20957;DHT22;10637;47.970;7.830;2024-01-30T14:23:12;15.30;99.90
20957;DHT22;10637;47.970;7.830;2024-01-30T14:28:14;15.20;99.90
20957;DHT22;10637;47.970;7.830;2024-01-30T14:33:16;15.00;99.90
20957;DHT22;10637;47.970;7.830;2024-01-30T14:38:18;14.80;99.90
20957;DHT22;10637;47.970;7.830;2024-01-30T14:43:20;14.60;99.90
20957;DHT22;10637;47.970;7.830;2024-01-30T14:48:24;14.50;99.90
20957;DHT22;10637;47.970;7.830;2024-01-30T14:53:26;14.50;99.90
20957;DHT22;10637;47.970;7.830;2024-01-30T14:58:29;14.30;99.90
20957;DHT22;10637;47.970;7.830;2024-01-30T15:03:31;14.30;99.90
20957;DHT22;10637;47.970;7.830;2024-01-30T15:08:32;14.20;99.90
20957;DHT22;10637;47.970;7.830;2024-01-30T15:13:35;14.10;99.90
20957;DHT22;10637;47.970;7.830;2024-01-30T15:18:37;14.00;99.90
20957;DHT22;10637;47.970;7.830;2024-01-30T15:23:38;13.80;99.90
20957;DHT22;10637;47.970;7.830;2024-01-30T15:28:40;13.90;99.90
20957;DHT22;10637;47.970;7.830;2024-01-30T15:33:42;13.90;99.90
20957;DHT22;10637;47.970;7.830;2024-01-30T15:38:47;13.80;99.90
20957;DHT22;10637;47.970;7.830;2024-01-30T15:43:49;13.70;99.90
20957;DHT22;10637;47.970;7.830;2024-01-30T15:48:51;13.60;99.90
20957;DHT22;10637;47.970;7.830;2024-01-30T15:53:53;13.60;99.90
20957;DHT22;10637;47.970;7.830;2024-01-30T15:58:55;13.60;99.90
20957;DHT22;10637;47.970;7.830;2024-01-30T16:03:57;13.50;99.90
20957;DHT22;10637;47.970;7.830;2024-01-30T16:08:58;13.40;99.90
20957;DHT22;10637;47.970;7.830;2024-01-30T16:14:00;13.20;99.90
20957;DHT22;10637;47.970;7.830;2024-01-30T16:19:02;13.20;99.90
20957;DHT22;10637;47.970;7.830;2024-01-30T16:24:08;13.20;99.90
20957;DHT22;10637;47.970;7.830;2024-01-30T16:29:10;13.20;99.90
20957;DHT22;10637;47.970;7.830;2024-01-30T16:34:11;13.20;99.90
20957;DHT22;10637;47.970;7.830;2024-01-30T16:39:14;13.20;99.90
20957;DHT22;10637;47.970;7.830;2024-01-30T16:44:15;13.10;99.90
20957;DHT22;10637;47.970;7.830;2024-01-30T16:49:17;12.90;99.90
20957;DHT22;10637;47.970;7.830;2024-01-30T16:54:19;12.90;99.90
20957;DHT22;10637;47.970;7.830;2024-01-30T16:59:22;12.70;99.90
20957;DHT22;10637;47.970;7.830;2024-01-30T17:04:26;12.70;99.90
20957;DHT22;10637;47.970;7.830;2024-01-30T17:09:28;12.60;99.90
20957;DHT22;10637;47.970;7.830;2024-01-30T17:14:30;12.40;99.90
20957;DHT22;10637;47.970;7.830;2024-01-30T17:19:32;12.30;99.90
20957;DHT22;10637;47.970;7.830;2024-01-30T17:24:34;12.10;99.90
20957;DHT22;10637;47.970;7.830;2024-01-30T17:29:50;12.00;99.90
20957;DHT22;10637;47.970;7.830;2024-01-30T17:34:52;12.00;99.90
20957;DHT22;10637;47.970;7.830;2024-01-30T17:39:54;11.80;99.90
20957;DHT22;10637;47.970;7.830;2024-01-30T17:44:56;11.60;99.90
20957;DHT22;10637;47.970;7.830;2024-01-30T17:50:00;11.60;99.90
20957;DHT22;10637;47.970;7.830;2024-01-30T17:55:05;11.50;99.90
20957;DHT22;10637;47.970;7.830;2024-01-30T18:00:07;11.60;99.90
20957;DHT22;10637;47.970;7.830;2024-01-30T18:05:12;11.50;99.90
20957;DHT22;10637;47.970;7.830;2024-01-30T18:10:14;11.40;99.90
20957;DHT22;10637;47.970;7.830;2024-01-30T18:15:20;11.30;99.90
20957;DHT22;10637;47.970;7.830;2024-01-30T18:20:22;11.00;99.90
20957;DHT22;10637;47.970;7.830;2024-01-30T18:25:24;11.10;99.90
20957;DHT22;10637;47.970;7.830;2024-01-30T18:30:26;11.10;99.90
20957;DHT22;10637;47.970;7.830;2024-01-30T18:35:28;11.10;99.90
20957;DHT22;10637;47.970;7.830;2024-01-30T18:40:39;10.90;99.90
20957;DHT22;10637;47.970;7.830;2024-01-30T18:45:41;10.90;99.90
20957;DHT22;10637;47.970;7.830;2024-01-30T18:50:43;10.90;99.90
20957;DHT22;10637;47.970;7.830;2024-01-30T18:55:46;10.90;99.90
20957;DHT22;10637;47.970;7.830;2024-01-30T19:00:48;10.80;99.90
20957;DHT22;10637;47.970;7.830;2024-01-30T19:05:50;10.80;99.90
20957;DHT22;10637;47.970;7.830;2024-01-30T19:10:53;10.70;99.90
20957;DHT22;10637;47.970;7.830;2024-01-30T19:15:55;10.70;99.90
20957;DHT22;10637;47.970;7.830;2024-01-30T19:20:58;10.60;99.90
20957;DHT22;10637;47.970;7.830;2024-01-30T19:26:00;10.40;99.90
20957;DHT22;10637;47.970;7.830;2024-01-30T19:31:11;10.30;99.90
20957;DHT22;10637;47.970;7.830;2024-01-30T19:36:14;10.10;99.90
20957;DHT22;10637;47.970;7.830;2024-01-30T19:41:16;10.00;99.90
20957;DHT22;10637;47.970;7.830;2024-01-30T19:46:20;10.00;99.90
20957;DHT22;10637;47.970;7.830;2024-01-30T19:51:22;10.10;99.90
20957;DHT22;10637;47.970;7.830;2024-01-30T19:56:24;10.00;99.90
20957;DHT22;10637;47.970;7.830;2024-01-30T20:01:25;9.80;99.90
20957;DHT22;10637;47.970;7.830;2024-01-30T20:06:29;9.80;99.90
20957;DHT22;10637;47.970;7.830;2024-01-30T20:11:30;9.80;99.90
20957;DHT22;10637;47.970;7.830;2024-01-30T20:16:41;9.60;99.90
20957;DHT22;10637;47.970;7.830;2024-01-30T20:21:44;9.70;99.90
20957;DHT22;10637;47.970;7.830;2024-01-30T20:26:49;9.50;99.90
20957;DHT22;10637;47.970;7.830;2024-01-30T20:31:51;9.50;99.90
20957;DHT22;10637;47.970;7.830;2024-01-30T20:37:03;9.30;99.90
20957;DHT22;10637;47.970;7.830;2024-01-30T20:42:05;9.20;99.90
20957;DHT22;10637;47.970;7.830;2024-01-30T20:47:09;9.20;99.90
20957;DHT22;10637;47.970;7.830;2024-01-30T20:52:11;9.20;99.90
20957;DHT22;10637;47.970;7.830;2024-01-30T20:57:15;9.20;99.90
20957;DHT22;10637;47.970;7.830;2024-01-30T21:02:17;9.10;99.90
20957;DHT22;10637;47.970;7.830;2024-01-30T21:07:19;8.90;99.90
20957;DHT22;10637;47.970;7.830;2024-01-30T21:12:27;8.50;99.90
20957;DHT22;10637;47.970;7.830;2024-01-30T21:17:32;8.50;99.90
20957;DHT22;10637;47.970;7.830;2024-01-30T21:22:35;8.50;99.90
20957;DHT22;10637;47.970;7.830;2024-01-30T21:27:37;8.70;99.90
20957;DHT22;10637;47.970;7.830;2024-01-30T21:32:40;8.50;99.90
20957;DHT22;10637;47.970;7.830;2024-01-30T21:37:44;8.50;99.90
20957;DHT22;10637;47.970;7.830;2024-01-30T21:42:46;8.40;99.90
20957;DHT22;10637;47.970;7.830;2024-01-30T21:47:50;8.50;99.90
20957;DHT22;10637;47.970;7.830;2024-01-30T21:52:52;8.60;99.90
20957;DHT22;10637;47.970;7.830;2024-01-30T21:57:54;8.50;99.90
20957;DHT22;10637;47.970;7.830;2024-01-30T22:02:56;8.40;99.90
20957;DHT22;10637;47.970;7.830;2024-01-30T22:07:58;8.40;99.90
20957;DHT22;10637;47.970;7.830;2024-01-30T22:13:02;8.50;99.90
20957;DHT22;10637;47.970;7.830;2024-01-30T22:18:04;8.40;99.90
20957;DHT22;10637;47.970;7.830;2024-01-30T22:23:06;8.10;99.90
20957;DHT22;10637;47.970;7.830;2024-01-30T22:28:08;8.20;99.90
20957;DHT22;10637;47.970;7.830;2024-01-30T22:33:10;8.20;99.90
20957;DHT22;10637;47.970;7.830;2024-01-30T22:38:13;8.20;99.90
20957;DHT22;10637;47.970;7.830;2024-01-30T22:43:15;8.30;99.90
20957;DHT22;10637;47.970;7.830;2024-01-30T22:48:16;8.40;99.90
20957;DHT22;10637;47.970;7.830;2024-01-30T22:53:23;8.50;99.90
20957;DHT22;10637;47.970;7.830;2024-01-30T22:58:25;8.50;99.90
20957;DHT22;10637;47.970;7.830;2024-01-30T23:03:27;8.40;99.90
20957;DHT22;10637;47.970;7.830;2024-01-30T23:08:29;8.40;99.90
20957;DHT22;10637;47.970;7.830;2024-01-30T23:13:31;8.30;99.90
20957;DHT22;10637;47.970;7.830;2024-01-30T23:18:33;8.40;99.90
20957;DHT22;10637;47.970;7.830;2024-01-30T23:23:35;8.30;99.90
20957;DHT22;10637;47.970;7.830;2024-01-30T23:28:36;8.30;99.90
20957;DHT22;10637;47.970;7.830;2024-01-30T23:33:39;8.10;99.90
20957;DHT22;10637;47.970;7.830;2024-01-30T23:38:42;8.10;99.90
20957;DHT22;10637;47.970;7.830;2024-01-30T23:43:44;7.90;99.90
20957;DHT22;10637;47.970;7.830;2024-01-30T23:48:46;7.70;99.90
20957;DHT22;10637;47.970;7.830;2024-01-30T23:53:48;7.60;99.90
20957;DHT22;10637;47.970;7.830;2024-01-30T23:58:51;7.40;99.90
